Time;durP1;ratioP1;P1;durP2;ratioP2;P2;SDS_P1;SDS_P2;PMS_P1;PMS_P2;Temp;Humidity;BMP_temperature;BMP_pressure;BME280_temperature;BME280_humidity;BME280_pressure;Samples;Min_cycle;Max_cycle;Signal;HPM_P1;HPM_P2
2021/11/24 00:00:09;;;;;;;11.83;7.43;;;4.30;99.90;;;;;;4980118;28;20206;-60
2021/11/24 00:02:35;;;;;;;9.13;7.90;;;4.30;99.90;;;;;;4978108;28;20769;-62
2021/11/24 00:05:01;;;;;;;11.40;7.40;;;4.30;99.90;;;;;;4978001;28;20514;-61
2021/11/24 00:07:27;;;;;;;10.33;8.07;;;4.30;99.90;;;;;;4979576;28;20573;-62
2021/11/24 00:09:52;;;;;;;10.00;7.57;;;4.40;99.90;;;;;;4976667;28;20280;-62
2021/11/24 00:12:18;;;;;;;12.43;8.37;;;4.50;99.90;;;;;;4977241;28;21039;-62
2021/11/24 00:14:44;;;;;;;14.50;7.20;;;4.40;99.90;;;;;;4980258;28;20201;-62
2021/11/24 00:17:09;;;;;;;10.57;8.17;;;4.30;99.90;;;;;;4980078;28;20804;-62
2021/11/24 00:19:35;;;;;;;12.23;7.70;;;4.40;99.90;;;;;;4978546;28;20275;-62
2021/11/24 00:22:00;;;;;;;10.50;7.90;;;4.50;99.90;;;;;;4977262;28;20644;-61
2021/11/24 00:24:26;;;;;;;10.33;8.30;;;4.40;99.90;;;;;;4979359;28;20193;-62
2021/11/24 00:26:52;;;;;;;10.00;7.80;;;4.40;99.90;;;;;;4976974;28;20590;-62
2021/11/24 00:29:18;;;;;;;11.23;8.13;;;4.30;99.90;;;;;;4977704;28;20612;-62
2021/11/24 00:31:43;;;;;;;10.67;7.40;;;4.30;99.90;;;;;;4961259;28;20193;-62
2021/11/24 00:34:09;;;;;;;8.60;7.40;;;4.30;99.90;;;;;;4977705;28;21222;-60
2021/11/24 00:36:34;;;;;;;12.53;8.23;;;4.30;99.90;;;;;;4980004;28;20190;-60
2021/11/24 00:39:00;;;;;;;18.83;9.43;;;4.30;99.90;;;;;;4978589;28;20404;-61
2021/11/24 00:41:26;;;;;;;11.00;8.43;;;4.30;99.90;;;;;;4981173;28;20208;-60
2021/11/24 00:43:51;;;;;;;11.60;8.67;;;4.30;99.90;;;;;;4977600;28;20210;-60
2021/11/24 00:46:17;;;;;;;10.53;8.20;;;4.20;99.90;;;;;;4977443;28;20643;-61
2021/11/24 00:48:42;;;;;;;11.50;8.10;;;4.30;99.90;;;;;;4979988;28;20222;-61
2021/11/24 00:51:08;;;;;;;12.47;9.07;;;4.10;99.90;;;;;;4975471;28;20262;-62
2021/11/24 00:53:34;;;;;;;12.13;7.97;;;4.10;99.90;;;;;;4973943;28;20269;-62
2021/11/24 00:56:00;;;;;;;11.53;8.40;;;4.20;99.90;;;;;;4980176;28;20190;-61
2021/11/24 00:58:26;;;;;;;11.70;8.07;;;4.00;99.90;;;;;;4978322;28;20599;-61
2021/11/24 01:00:52;;;;;;;10.30;8.03;;;4.20;99.90;;;;;;4978261;28;20192;-62
2021/11/24 01:03:17;;;;;;;10.77;8.23;;;4.10;99.90;;;;;;4979026;28;20851;-62
2021/11/24 01:05:45;;;;;;;9.80;7.90;;;4.10;99.90;;;;;;4978897;28;20190;-62
2021/11/24 01:08:15;;;;;;;15.10;8.63;;;4.20;99.90;;;;;;4978665;28;20320;-62
2021/11/24 01:10:42;;;;;;;11.53;8.77;;;4.20;99.90;;;;;;4974702;28;20445;-62
2021/11/24 01:13:08;;;;;;;10.83;8.43;;;4.00;99.90;;;;;;4977215;28;20448;-61
2021/11/24 01:15:34;;;;;;;11.33;8.60;;;3.90;99.90;;;;;;4977517;28;20826;-61
2021/11/24 01:18:00;;;;;;;12.43;8.87;;;4.00;99.90;;;;;;4958491;28;20457;-62
2021/11/24 01:20:25;;;;;;;9.87;6.93;;;4.00;99.90;;;;;;4977119;28;20248;-61
2021/11/24 01:22:51;;;;;;;8.70;7.67;;;4.00;99.90;;;;;;4979575;28;20273;-62
2021/11/24 01:25:16;;;;;;;9.57;7.63;;;4.00;99.90;;;;;;4976759;28;20274;-61
2021/11/24 01:27:43;;;;;;;11.10;8.03;;;4.00;99.90;;;;;;4980444;28;20589;-62
2021/11/24 01:30:10;;;;;;;9.07;7.40;;;4.00;99.90;;;;;;4961540;28;20751;-61
2021/11/24 01:32:37;;;;;;;12.93;8.87;;;4.00;99.90;;;;;;4978469;28;20474;-61
2021/11/24 01:35:07;;;;;;;10.83;8.50;;;3.90;99.90;;;;;;4976354;28;20433;-61
2021/11/24 01:37:33;;;;;;;9.50;7.67;;;3.90;99.90;;;;;;4979182;28;20441;-61
2021/11/24 01:40:00;;;;;;;12.97;7.90;;;4.00;99.90;;;;;;4975905;28;21036;-62
2021/11/24 01:42:26;;;;;;;9.87;7.90;;;4.00;99.90;;;;;;4977869;28;20533;-61
2021/11/24 01:44:52;;;;;;;9.97;7.97;;;4.00;99.90;;;;;;4978752;28;20532;-61
2021/11/24 01:47:18;;;;;;;12.53;8.20;;;3.90;99.90;;;;;;4976107;28;20606;-61
2021/11/24 01:49:43;;;;;;;10.13;7.77;;;4.00;99.90;;;;;;4976336;28;20310;-61
2021/11/24 01:52:10;;;;;;;11.53;8.27;;;3.90;99.90;;;;;;4976057;28;20245;-61
2021/11/24 01:54:36;;;;;;;11.90;7.80;;;3.90;99.90;;;;;;4975373;28;20249;-62
2021/11/24 01:57:02;;;;;;;10.00;8.17;;;3.80;99.90;;;;;;4977484;28;20445;-61
2021/11/24 01:59:28;;;;;;;11.53;8.07;;;3.80;99.90;;;;;;4977279;28;20640;-61
2021/11/24 02:01:54;;;;;;;12.13;8.07;;;3.80;99.90;;;;;;4978393;28;20503;-61
2021/11/24 02:04:22;;;;;;;10.77;9.00;;;3.80;99.90;;;;;;4977319;28;20441;-60
2021/11/24 02:06:50;;;;;;;10.00;8.13;;;3.80;99.90;;;;;;4977783;28;20799;-61
2021/11/24 02:09:16;;;;;;;11.80;7.97;;;3.70;99.90;;;;;;4972946;28;20556;-60
2021/11/24 02:11:43;;;;;;;11.13;7.50;;;3.70;99.90;;;;;;4977562;28;20490;-61
2021/11/24 02:14:10;;;;;;;9.77;7.70;;;3.70;99.90;;;;;;4973246;28;20446;-61
2021/11/24 02:16:44;;;;;;;12.53;8.57;;;3.80;99.90;;;;;;4975623;28;20440;-61
2021/11/24 02:19:10;;;;;;;11.47;7.73;;;3.80;99.90;;;;;;4978508;28;20508;-61
2021/11/24 02:21:36;;;;;;;11.50;7.73;;;3.70;99.90;;;;;;4974533;28;20936;-61
2021/11/24 02:24:02;;;;;;;12.47;8.70;;;3.70;99.90;;;;;;4975368;28;20182;-61
2021/11/24 02:26:28;;;;;;;16.83;8.37;;;3.80;99.90;;;;;;4978987;28;21216;-61
2021/11/24 02:28:54;;;;;;;12.70;7.97;;;3.80;99.90;;;;;;4975682;28;20559;-61
2021/11/24 02:31:26;;;;;;;11.57;8.43;;;3.70;99.90;;;;;;4974426;28;20244;-61
2021/11/24 02:33:53;;;;;;;10.40;8.60;;;3.70;99.90;;;;;;4975044;28;20620;-61
2021/11/24 02:36:20;;;;;;;15.83;9.20;;;3.70;99.90;;;;;;4972655;28;20470;-62
2021/11/24 02:38:46;;;;;;;11.90;8.53;;;3.70;99.90;;;;;;4975660;28;20488;-62
2021/11/24 02:41:12;;;;;;;10.67;8.40;;;3.70;99.90;;;;;;4976423;28;20931;-61
2021/11/24 02:43:38;;;;;;;15.03;7.80;;;3.80;99.90;;;;;;4975738;28;20441;-61
2021/11/24 02:46:04;;;;;;;13.20;8.70;;;3.70;99.90;;;;;;4974956;28;20195;-61
2021/11/24 02:48:29;;;;;;;11.83;8.67;;;3.60;99.90;;;;;;4973258;28;20868;-61
2021/11/24 02:50:55;;;;;;;19.73;8.17;;;3.50;99.90;;;;;;4978226;28;20209;-61
2021/11/24 02:53:29;;;;;;;13.90;10.40;;;3.60;99.90;;;;;;4977834;28;20325;-61
2021/11/24 02:55:55;;;;;;;11.73;8.60;;;3.60;99.90;;;;;;4977505;28;20197;-61
2021/11/24 02:58:21;;;;;;;11.90;8.17;;;3.70;99.90;;;;;;4976611;28;20918;-62
2021/11/24 03:00:47;;;;;;;10.20;8.50;;;3.70;99.90;;;;;;4978235;28;20436;-62
2021/11/24 03:03:12;;;;;;;13.77;8.03;;;3.70;99.90;;;;;;4972414;28;20807;-61
2021/11/24 03:05:38;;;;;;;12.30;8.70;;;3.70;99.90;;;;;;4964638;28;20255;-61
2021/11/24 03:08:04;;;;;;;14.43;8.83;;;3.70;99.90;;;;;;4971774;28;20201;-61
2021/11/24 03:10:32;;;;;;;11.37;8.93;;;3.70;99.90;;;;;;4973184;28;20183;-61
2021/11/24 03:13:00;;;;;;;10.53;7.70;;;3.70;99.90;;;;;;4977955;28;20446;-61
2021/11/24 03:15:25;;;;;;;10.67;8.10;;;3.70;99.90;;;;;;4978639;28;20456;-61
2021/11/24 03:17:51;;;;;;;9.50;8.07;;;3.60;99.90;;;;;;4978995;28;20441;-61
2021/11/24 03:20:17;;;;;;;13.03;8.60;;;3.50;99.90;;;;;;4979940;28;20190;-61
2021/11/24 03:22:43;;;;;;;11.73;8.37;;;3.60;99.90;;;;;;4979674;28;20178;-61
2021/11/24 03:25:10;;;;;;;10.63;8.30;;;3.60;99.90;;;;;;4982161;28;20325;-61
2021/11/24 03:27:38;;;;;;;17.93;8.93;;;3.60;99.90;;;;;;4977290;28;20444;-61
2021/11/24 03:30:19;;;;;;;13.40;8.53;;;3.60;99.90;;;;;;4980089;28;20887;-61
2021/11/24 03:32:45;;;;;;;12.13;8.33;;;3.70;99.90;;;;;;4962228;28;20531;-61
2021/11/24 03:35:11;;;;;;;9.60;8.60;;;3.60;99.90;;;;;;4978682;28;20813;-61
2021/11/24 03:37:37;;;;;;;11.93;8.87;;;3.70;99.90;;;;;;4977054;28;20457;-61
2021/11/24 03:40:05;;;;;;;10.87;8.00;;;3.70;99.90;;;;;;4978252;28;20225;-61
2021/11/24 03:42:32;;;;;;;11.50;8.63;;;3.70;99.90;;;;;;4978403;28;20529;-61
2021/11/24 03:44:59;;;;;;;14.00;8.47;;;3.60;99.90;;;;;;4981384;28;20444;-61
2021/11/24 03:47:25;;;;;;;13.10;8.77;;;3.60;99.90;;;;;;4976741;28;20436;-61
2021/11/24 03:49:50;;;;;;;11.13;7.70;;;3.60;99.90;;;;;;4978537;28;20555;-61
2021/11/24 03:52:16;;;;;;;12.13;8.60;;;3.60;99.90;;;;;;4975544;28;20998;-61
2021/11/24 03:54:41;;;;;;;9.70;8.33;;;3.60;99.90;;;;;;4976968;28;20203;-61
2021/11/24 03:57:07;;;;;;;11.90;9.67;;;3.50;99.90;;;;;;4980275;28;20197;-61
2021/11/24 03:59:33;;;;;;;10.57;9.00;;;3.40;99.90;;;;;;4978324;28;20265;-61
2021/11/24 04:01:58;;;;;;;12.33;8.60;;;3.40;99.90;;;;;;4976985;28;20197;-61
2021/11/24 04:04:24;;;;;;;10.03;8.70;;;3.40;99.90;;;;;;4983295;28;20299;-62
2021/11/24 04:06:50;;;;;;;15.27;8.70;;;3.50;99.90;;;;;;4979238;28;20230;-60
2021/11/24 04:09:15;;;;;;;11.80;8.43;;;3.50;99.90;;;;;;4977286;28;20283;-61
2021/11/24 04:11:41;;;;;;;11.47;9.63;;;3.50;99.90;;;;;;4976127;28;20206;-60
2021/11/24 04:14:07;;;;;;;9.53;8.10;;;3.50;99.90;;;;;;4976843;28;20238;-60
2021/11/24 04:16:32;;;;;;;10.33;8.30;;;3.40;99.90;;;;;;4979352;28;20193;-61
2021/11/24 04:19:00;;;;;;;13.43;9.30;;;3.50;99.90;;;;;;4975533;28;20277;-61
2021/11/24 04:21:26;;;;;;;13.70;8.57;;;3.40;99.90;;;;;;4974951;28;20957;-61
2021/11/24 04:23:51;;;;;;;12.83;8.97;;;3.40;99.90;;;;;;4983463;28;20997;-61
2021/11/24 04:26:17;;;;;;;11.13;9.03;;;3.50;99.90;;;;;;4976799;28;20593;-61
2021/11/24 04:28:43;;;;;;;14.03;9.10;;;3.40;99.90;;;;;;4977063;28;20228;-61
2021/11/24 04:31:09;;;;;;;11.73;8.10;;;3.40;99.90;;;;;;4977744;28;20601;-61
2021/11/24 04:33:36;;;;;;;10.63;8.30;;;3.50;99.90;;;;;;4974733;28;20202;-61
2021/11/24 04:36:03;;;;;;;16.33;9.23;;;3.60;99.90;;;;;;4977188;28;20540;-62
2021/11/24 04:38:29;;;;;;;15.23;8.83;;;3.60;99.90;;;;;;4977279;28;20473;-61
2021/11/24 04:40:55;;;;;;;12.40;9.47;;;3.50;99.90;;;;;;4975571;28;20812;-61
2021/11/24 04:43:23;;;;;;;14.00;8.70;;;3.50;99.90;;;;;;4979118;28;20201;-62
2021/11/24 04:45:49;;;;;;;13.63;8.60;;;3.50;99.90;;;;;;4976099;28;20441;-63
2021/11/24 04:48:15;;;;;;;18.70;9.40;;;3.60;99.90;;;;;;4981065;28;20503;-61
2021/11/24 04:50:41;;;;;;;11.70;8.27;;;3.60;99.90;;;;;;4976367;28;20285;-62
2021/11/24 04:53:06;;;;;;;15.63;8.23;;;3.40;99.90;;;;;;4977900;28;20587;-62
2021/11/24 04:55:33;;;;;;;10.87;9.60;;;3.40;99.90;;;;;;4977680;28;20191;-62
2021/11/24 04:57:59;;;;;;;14.20;8.60;;;3.30;99.90;;;;;;4979052;28;20339;-62
2021/11/24 05:00:24;;;;;;;11.70;8.07;;;3.40;99.90;;;;;;4979802;28;20524;-62
2021/11/24 05:02:52;;;;;;;11.40;9.10;;;3.30;99.90;;;;;;4976486;28;20442;-61
2021/11/24 05:05:21;;;;;;;13.03;9.10;;;3.20;99.90;;;;;;4973830;28;20183;-62
2021/11/24 05:07:46;;;;;;;11.43;7.90;;;3.30;99.90;;;;;;4979745;28;20437;-62
2021/11/24 05:10:12;;;;;;;11.70;8.57;;;3.40;99.90;;;;;;4975009;28;20487;-62
2021/11/24 05:12:38;;;;;;;10.87;9.40;;;3.40;99.90;;;;;;4975836;28;20194;-62
2021/11/24 05:15:08;;;;;;;15.43;8.87;;;3.30;99.90;;;;;;4978089;28;20233;-62
2021/11/24 05:17:34;;;;;;;10.80;7.90;;;3.30;99.90;;;;;;4976627;28;20572;-62
2021/11/24 05:20:00;;;;;;;12.10;8.50;;;3.30;99.90;;;;;;4979001;28;20476;-62
2021/11/24 05:22:26;;;;;;;17.17;7.53;;;3.30;99.90;;;;;;4973390;28;20194;-62
2021/11/24 05:24:55;;;;;;;12.73;8.60;;;3.30;99.90;;;;;;4973380;28;20460;-63
2021/11/24 05:27:20;;;;;;;10.00;8.70;;;3.00;99.90;;;;;;4980228;28;21000;-62
2021/11/24 05:29:46;;;;;;;13.87;8.83;;;3.20;99.90;;;;;;4974179;28;20587;-62
2021/11/24 05:32:12;;;;;;;10.90;8.00;;;3.30;99.90;;;;;;4976749;28;20221;-62
2021/11/24 05:34:37;;;;;;;10.60;8.50;;;3.10;99.90;;;;;;4976197;28;20231;-62
2021/11/24 05:37:03;;;;;;;12.50;8.73;;;3.20;99.90;;;;;;4975427;28;20655;-63
2021/11/24 05:39:29;;;;;;;11.47;8.13;;;3.30;99.90;;;;;;4978724;28;20216;-60
2021/11/24 05:41:55;;;;;;;16.53;8.70;;;3.20;99.90;;;;;;4975480;28;20190;-63
2021/11/24 05:44:24;;;;;;;12.60;8.03;;;3.10;99.90;;;;;;4974020;28;20190;-63
2021/11/24 05:47:00;;;;;;;12.67;8.03;;;3.10;99.90;;;;;;4978496;28;20627;-62
2021/11/24 05:49:27;;;;;;;14.70;8.37;;;3.30;99.90;;;;;;4974031;28;20467;-61
2021/11/24 05:51:57;;;;;;;9.60;8.13;;;3.20;99.90;;;;;;4975168;28;20457;-61
2021/11/24 05:54:24;;;;;;;10.97;7.37;;;3.30;99.90;;;;;;4977782;28;20863;-64
2021/11/24 05:56:49;;;;;;;9.33;7.57;;;3.30;99.90;;;;;;4976731;28;20815;-61
2021/11/24 05:59:18;;;;;;;14.50;8.00;;;3.30;99.90;;;;;;4978097;28;20484;-61
2021/11/24 06:01:44;;;;;;;12.20;7.93;;;3.40;99.90;;;;;;4975356;28;20188;-62
2021/11/24 06:04:10;;;;;;;14.80;8.53;;;3.50;99.90;;;;;;4978899;28;20445;-61
2021/11/24 06:06:36;;;;;;;13.43;8.90;;;3.60;99.90;;;;;;4978556;28;20472;-61
2021/11/24 06:09:03;;;;;;;11.27;8.93;;;3.60;99.90;;;;;;4975522;28;22001;-63
2021/11/24 06:11:29;;;;;;;10.60;8.27;;;3.50;99.90;;;;;;4976997;28;20446;-61
2021/11/24 06:13:54;;;;;;;12.27;9.23;;;3.50;99.90;;;;;;4974637;28;22158;-61
2021/11/24 06:16:20;;;;;;;13.40;9.00;;;3.50;99.90;;;;;;4960197;28;20572;-61
2021/11/24 06:18:47;;;;;;;15.20;9.10;;;3.60;99.90;;;;;;4977662;28;20225;-61
2021/11/24 06:21:13;;;;;;;14.23;9.70;;;3.40;99.90;;;;;;4972441;28;20541;-61
2021/11/24 06:23:39;;;;;;;12.60;9.23;;;3.00;99.90;;;;;;4978491;28;20587;-62
2021/11/24 06:26:07;;;;;;;12.40;9.17;;;3.00;99.90;;;;;;4973398;28;20190;-61
2021/11/24 06:28:33;;;;;;;14.40;9.20;;;3.10;99.90;;;;;;4972823;28;20860;-61
2021/11/24 06:30:59;;;;;;;16.43;9.87;;;3.10;99.90;;;;;;4975333;28;20447;-61
2021/11/24 06:33:26;;;;;;;15.60;9.77;;;3.30;99.90;;;;;;4975650;28;20529;-61
2021/11/24 06:35:52;;;;;;;12.53;9.67;;;3.20;99.90;;;;;;4972008;28;20813;-61
2021/11/24 06:38:18;;;;;;;11.00;8.50;;;3.20;99.90;;;;;;4955785;28;20942;-61
2021/11/24 06:40:45;;;;;;;23.50;9.40;;;3.20;99.90;;;;;;4974617;28;20530;-61
2021/11/24 06:43:10;;;;;;;12.93;9.83;;;3.00;99.90;;;;;;4971624;28;20284;-62
2021/11/24 06:45:36;;;;;;;18.53;11.00;;;3.00;99.90;;;;;;4976699;28;20981;-62
2021/11/24 06:48:02;;;;;;;19.23;10.17;;;3.20;99.90;;;;;;4975009;28;20200;-61
2021/11/24 06:50:28;;;;;;;14.90;9.30;;;3.20;99.90;;;;;;4977737;28;20185;-61
2021/11/24 06:52:54;;;;;;;14.83;9.97;;;3.20;99.90;;;;;;4977406;28;20739;-61
2021/11/24 06:55:19;;;;;;;14.73;11.33;;;3.10;99.90;;;;;;4975858;28;20343;-61
2021/11/24 06:57:45;;;;;;;17.80;11.00;;;3.10;99.90;;;;;;4974366;28;20193;-61
2021/11/24 07:00:11;;;;;;;17.40;11.53;;;3.10;99.90;;;;;;4974658;28;20270;-61
2021/11/24 07:02:37;;;;;;;19.67;11.30;;;3.10;99.90;;;;;;4974057;28;20193;-61
2021/11/24 07:05:03;;;;;;;18.57;11.10;;;3.10;99.90;;;;;;4968773;28;20440;-61
2021/11/24 07:07:29;;;;;;;18.83;11.60;;;3.10;99.90;;;;;;4956341;28;20448;-61
2021/11/24 07:09:54;;;;;;;20.73;11.73;;;3.00;99.90;;;;;;4972689;28;20456;-61
2021/11/24 07:12:23;;;;;;;20.57;11.10;;;2.90;99.90;;;;;;4975788;28;20213;-61
2021/11/24 07:14:50;;;;;;;21.00;12.47;;;2.90;99.90;;;;;;4974537;28;20535;-60
2021/11/24 07:17:16;;;;;;;21.43;11.67;;;2.60;99.90;;;;;;4953890;28;20469;-61
2021/11/24 07:19:41;;;;;;;19.60;11.70;;;2.60;99.90;;;;;;4974119;28;20473;-61
2021/11/24 07:22:07;;;;;;;25.00;12.43;;;2.70;99.90;;;;;;4977428;28;20201;-61
2021/11/24 07:24:32;;;;;;;19.90;12.07;;;2.80;99.90;;;;;;4968356;28;20196;-61
2021/11/24 07:26:58;;;;;;;20.10;12.50;;;3.00;99.90;;;;;;4970646;28;20200;-62
2021/11/24 07:29:24;;;;;;;18.23;12.80;;;3.10;99.90;;;;;;4966797;28;20210;-62
2021/11/24 07:31:50;;;;;;;20.80;11.90;;;3.30;99.90;;;;;;4966671;28;20194;-62
2021/11/24 07:34:16;;;;;;;17.87;9.93;;;3.30;99.90;;;;;;4972645;28;20446;-62
2021/11/24 07:36:42;;;;;;;23.73;12.00;;;3.30;99.90;;;;;;4974445;28;20776;-61
2021/11/24 07:39:08;;;;;;;17.83;11.80;;;3.30;99.90;;;;;;4974572;28;20795;-62
2021/11/24 07:41:33;;;;;;;20.70;12.00;;;3.30;99.90;;;;;;4975531;28;20516;-65
2021/11/24 07:43:59;;;;;;;21.70;11.60;;;3.20;99.90;;;;;;4977546;28;20193;-65
2021/11/24 07:46:24;;;;;;;18.33;11.37;;;3.50;99.90;;;;;;4976795;28;20682;-61
2021/11/24 07:48:50;;;;;;;20.60;12.63;;;3.50;99.90;;;;;;4975396;28;20214;-55
2021/11/24 07:51:19;;;;;;;18.83;10.40;;;3.60;99.90;;;;;;4973328;28;20563;-56
2021/11/24 07:53:46;;;;;;;21.10;12.70;;;3.70;99.90;;;;;;4973934;28;20193;-58
2021/11/24 07:56:11;;;;;;;18.60;10.43;;;3.70;99.90;;;;;;4975531;28;20444;-60
2021/11/24 07:58:40;;;;;;;18.57;10.53;;;3.70;99.90;;;;;;4973071;28;20473;-57
2021/11/24 08:01:07;;;;;;;23.30;11.47;;;3.90;99.90;;;;;;4974035;28;20194;-53
2021/11/24 08:03:32;;;;;;;19.27;10.10;;;3.90;99.90;;;;;;4976559;28;20527;-54
2021/11/24 08:05:58;;;;;;;16.40;10.20;;;4.00;99.90;;;;;;4976318;28;20577;-58
2021/11/24 08:08:23;;;;;;;17.97;11.13;;;4.00;99.90;;;;;;4976380;28;20217;-57
2021/11/24 08:10:49;;;;;;;18.27;10.77;;;4.00;99.90;;;;;;4976408;28;20249;-58
2021/11/24 08:13:17;;;;;;;19.73;11.73;;;4.00;99.90;;;;;;4959004;28;20191;-58
2021/11/24 08:15:42;;;;;;;23.40;12.07;;;4.00;99.90;;;;;;4963758;28;20189;-58
2021/11/24 08:18:08;;;;;;;17.60;11.37;;;4.10;99.90;;;;;;4976662;28;20500;-58
2021/11/24 08:20:33;;;;;;;19.07;11.07;;;4.10;99.90;;;;;;4979164;28;20187;-58
2021/11/24 08:22:59;;;;;;;18.60;11.10;;;4.10;99.90;;;;;;4977800;28;20659;-56
2021/11/24 08:25:25;;;;;;;20.87;11.67;;;4.20;99.90;;;;;;4980235;28;20193;-59
2021/11/24 08:27:50;;;;;;;19.20;12.53;;;4.20;99.90;;;;;;4978726;28;20190;-57
2021/11/24 08:30:16;;;;;;;18.00;10.03;;;4.10;99.90;;;;;;4974386;28;20272;-58
2021/11/24 08:32:42;;;;;;;17.97;12.03;;;4.20;99.90;;;;;;4967871;28;20266;-59
2021/11/24 08:35:08;;;;;;;19.27;10.77;;;4.10;99.90;;;;;;4960091;28;20662;-57
2021/11/24 08:37:34;;;;;;;17.10;10.33;;;4.00;99.90;;;;;;4956808;28;20445;-58
2021/11/24 08:40:00;;;;;;;19.53;10.80;;;4.00;99.90;;;;;;4957204;28;20468;-56
2021/11/24 08:42:26;;;;;;;18.63;10.90;;;4.00;99.90;;;;;;4982096;28;20182;-55
2021/11/24 08:44:53;;;;;;;17.67;12.00;;;4.00;99.90;;;;;;4975527;28;20248;-57
2021/11/24 08:47:19;;;;;;;18.53;10.43;;;4.10;99.90;;;;;;4975039;28;20705;-56
2021/11/24 08:49:45;;;;;;;18.07;11.03;;;4.10;99.90;;;;;;4971721;28;20461;-58
2021/11/24 08:52:11;;;;;;;21.70;13.63;;;4.20;99.90;;;;;;4974383;28;20433;-57
2021/11/24 08:54:37;;;;;;;20.60;11.50;;;4.30;99.90;;;;;;4974329;28;20186;-58
2021/11/24 08:57:04;;;;;;;19.27;11.70;;;4.40;99.90;;;;;;4979737;28;20185;-58
2021/11/24 08:59:30;;;;;;;22.07;11.87;;;4.30;99.90;;;;;;4973486;28;20510;-57
2021/11/24 09:01:56;;;;;;;15.53;10.37;;;4.40;99.90;;;;;;4977276;28;20449;-54
2021/11/24 09:04:22;;;;;;;17.70;10.63;;;4.40;99.90;;;;;;4973852;28;20189;-57
2021/11/24 09:06:48;;;;;;;15.70;10.27;;;4.40;99.90;;;;;;4974042;28;20461;-55
2021/11/24 09:09:13;;;;;;;19.93;10.30;;;4.40;99.90;;;;;;4979003;28;20492;-55
2021/11/24 09:11:40;;;;;;;17.53;11.77;;;4.50;99.90;;;;;;4977476;28;20244;-57
2021/11/24 09:14:05;;;;;;;15.77;11.40;;;4.50;99.90;;;;;;4975303;28;20193;-58
2021/11/24 09:16:32;;;;;;;15.87;10.67;;;4.50;99.90;;;;;;4976710;28;20452;-58
2021/11/24 09:18:58;;;;;;;15.67;10.43;;;4.40;99.90;;;;;;4978007;28;20470;-56
2021/11/24 09:21:24;;;;;;;18.13;12.23;;;4.50;99.90;;;;;;4975513;28;20448;-58
2021/11/24 09:23:56;;;;;;;16.10;10.73;;;4.50;99.90;;;;;;4974563;28;20426;-58
2021/11/24 09:29:07;;;;;;;21.63;11.93;;;4.50;99.90;;;;;;4975442;28;20499;-57
2021/11/24 09:31:33;;;;;;;17.30;11.10;;;4.60;99.90;;;;;;4975490;28;20568;-57
2021/11/24 09:33:59;;;;;;;16.97;10.77;;;4.60;99.90;;;;;;4976833;28;20520;-58
2021/11/24 09:36:25;;;;;;;18.10;11.00;;;4.60;99.90;;;;;;4978491;28;20441;-58
2021/11/24 09:38:51;;;;;;;19.33;11.43;;;4.50;99.90;;;;;;4979538;28;20473;-56
2021/11/24 09:41:20;;;;;;;14.13;9.90;;;4.60;99.90;;;;;;4977668;28;20455;-59
2021/11/24 09:43:51;;;;;;;16.90;10.80;;;4.60;99.90;;;;;;4976692;28;20208;-56
2021/11/24 09:46:18;;;;;;;14.30;10.20;;;4.50;99.90;;;;;;4975296;28;20590;-59
2021/11/24 09:48:45;;;;;;;13.20;10.17;;;4.60;99.90;;;;;;4973164;28;20457;-60
2021/11/24 09:51:12;;;;;;;23.43;10.83;;;4.70;99.90;;;;;;4973606;28;20450;-59
2021/11/24 09:53:40;;;;;;;14.40;10.00;;;4.70;99.90;;;;;;4972657;28;20441;-58
2021/11/24 09:56:06;;;;;;;16.03;11.00;;;4.90;99.90;;;;;;4973320;28;20820;-59
2021/11/24 09:58:32;;;;;;;14.13;9.93;;;4.90;99.90;;;;;;4974068;28;20466;-59
2021/11/24 10:00:59;;;;;;;14.57;11.00;;;4.90;99.90;;;;;;4975643;28;20819;-57
2021/11/24 10:03:25;;;;;;;19.97;12.10;;;4.90;99.90;;;;;;4959355;28;20859;-60
2021/11/24 10:05:51;;;;;;;16.70;11.20;;;4.90;99.90;;;;;;4973546;28;20709;-56
2021/11/24 10:08:18;;;;;;;17.60;12.37;;;5.00;99.90;;;;;;4971754;28;20898;-58
2021/11/24 10:10:43;;;;;;;16.50;10.97;;;5.00;99.90;;;;;;4972275;28;20425;-57
2021/11/24 10:13:10;;;;;;;18.70;12.37;;;5.00;99.90;;;;;;4976935;28;20429;-58
2021/11/24 10:15:40;;;;;;;17.43;11.33;;;5.00;99.90;;;;;;4975874;28;20185;-59
2021/11/24 10:18:26;;;;;;;17.90;11.33;;;4.80;99.90;;;;;;4974974;28;20437;-56
2021/11/24 10:21:09;;;;;;;28.37;12.00;;;5.00;99.90;;;;;;4979693;28;20461;-58
2021/11/24 10:23:41;;;;;;;18.90;12.20;;;5.10;99.90;;;;;;4971919;28;20886;-59
2021/11/24 10:26:17;;;;;;;17.20;11.40;;;5.10;99.90;;;;;;4973421;28;20437;-59
2021/11/24 10:28:57;;;;;;;16.03;10.90;;;5.20;99.90;;;;;;4975115;28;20541;-57
2021/11/24 10:31:42;;;;;;;17.47;10.80;;;5.20;99.90;;;;;;4971432;28;20503;-56
2021/11/24 10:34:16;;;;;;;18.33;11.80;;;5.20;99.90;;;;;;4973905;28;20433;-58
2021/11/24 10:36:49;;;;;;;18.77;12.23;;;5.40;99.90;;;;;;4975727;28;20437;-58
2021/11/24 10:39:15;;;;;;;16.93;12.23;;;5.60;99.90;;;;;;4972148;28;20476;-59
2021/11/24 10:41:41;;;;;;;21.67;13.23;;;5.30;99.90;;;;;;4973262;28;20796;-59
2021/11/24 10:44:08;;;;;;;19.20;12.83;;;5.40;99.90;;;;;;4976773;28;20190;-60
2021/11/24 10:46:36;;;;;;;19.93;14.00;;;5.60;99.90;;;;;;4973262;28;20191;-58
2021/11/24 10:49:08;;;;;;;19.30;11.90;;;5.80;99.90;;;;;;4978524;28;20463;-58
2021/11/24 10:51:36;;;;;;;17.93;12.43;;;5.80;99.90;;;;;;4969894;28;20886;-58
2021/11/24 10:54:19;;;;;;;18.23;12.63;;;5.90;99.90;;;;;;4966169;28;20819;-59
2021/11/24 10:57:09;;;;;;;18.50;12.57;;;5.90;99.90;;;;;;4974001;28;20973;-59
2021/11/24 10:59:40;;;;;;;17.70;13.10;;;5.90;99.90;;;;;;4971815;28;20557;-59
2021/11/24 11:02:28;;;;;;;21.60;13.13;;;6.00;99.90;;;;;;4974774;28;20440;-60
2021/11/24 11:05:00;;;;;;;15.80;11.13;;;6.00;99.90;;;;;;4977832;28;20433;-60
2021/11/24 11:07:30;;;;;;;17.43;11.37;;;6.10;99.90;;;;;;4975179;28;20464;-59
2021/11/24 11:10:19;;;;;;;17.23;11.63;;;5.90;99.90;;;;;;4970881;28;20463;-60
2021/11/24 11:12:49;;;;;;;18.30;11.70;;;6.10;99.90;;;;;;4973873;28;20445;-59
2021/11/24 11:15:20;;;;;;;18.97;12.83;;;6.20;99.90;;;;;;4973792;28;20485;-59
2021/11/24 11:17:59;;;;;;;18.70;12.43;;;6.30;99.90;;;;;;4974372;28;20440;-59
2021/11/24 11:20:28;;;;;;;17.53;12.90;;;6.40;99.90;;;;;;4976939;28;20464;-59
2021/11/24 11:23:04;;;;;;;22.30;12.70;;;6.50;99.90;;;;;;4974023;28;20445;-60
2021/11/24 11:25:30;;;;;;;17.60;12.03;;;6.50;99.90;;;;;;4970793;28;20425;-58
2021/11/24 11:27:56;;;;;;;17.73;12.20;;;6.50;99.90;;;;;;4972792;28;20430;-59
2021/11/24 11:30:22;;;;;;;16.33;11.93;;;6.70;99.90;;;;;;4971827;28;20822;-60
2021/11/24 11:32:48;;;;;;;16.20;12.23;;;6.90;99.90;;;;;;4976651;28;20434;-59
2021/11/24 11:35:16;;;;;;;18.50;13.40;;;7.00;99.90;;;;;;4974224;28;20484;-59
2021/11/24 11:37:43;;;;;;;15.20;11.33;;;6.90;99.90;;;;;;4973510;28;20660;-60
2021/11/24 11:40:12;;;;;;;15.47;11.83;;;6.80;99.90;;;;;;4978441;28;20471;-59
2021/11/24 11:42:39;;;;;;;19.00;13.03;;;6.80;99.90;;;;;;4977488;28;20959;-59
2021/11/24 11:45:08;;;;;;;17.93;13.70;;;6.80;99.90;;;;;;4978397;28;20454;-60
2021/11/24 11:47:48;;;;;;;21.30;12.07;;;6.80;99.90;;;;;;4979565;28;20424;-60
2021/11/24 11:50:48;;;;;;;21.30;13.57;;;6.90;99.90;;;;;;4975643;28;20616;-60
2021/11/24 11:53:18;;;;;;;16.80;12.33;;;6.80;99.90;;;;;;4977638;28;20557;-59
2021/11/24 11:55:45;;;;;;;21.77;14.07;;;6.80;99.90;;;;;;4978900;28;20440;-60
2021/11/24 11:58:25;;;;;;;15.53;12.53;;;6.80;99.90;;;;;;4979065;28;20488;-60
2021/11/24 12:01:28;;;;;;;18.63;14.43;;;6.80;99.90;;;;;;4977063;28;20443;-60
2021/11/24 12:04:03;;;;;;;20.67;12.60;;;7.10;99.90;;;;;;4866688;29;20514;-60
2021/11/24 12:06:31;;;;;;;21.90;13.73;;;7.40;99.90;;;;;;4963794;28;20436;-60
2021/11/24 12:09:06;;;;;;;17.37;12.70;;;8.30;99.90;;;;;;4978025;28;20464;-60
2021/11/24 12:12:00;;;;;;;17.50;13.20;;;9.30;99.90;;;;;;4976369;28;20448;-60
2021/11/24 12:14:49;;;;;;;16.40;12.83;;;11.20;99.90;;;;;;4979650;28;20437;-61
2021/11/24 12:17:31;;;;;;;15.00;12.03;;;13.40;99.90;;;;;;4976785;28;21138;-61
2021/11/24 12:25:23;;;;;;;18.80;13.87;;;16.70;96.30;;;;;;4974318;28;20935;-60
2021/11/24 12:33:05;;;;;;;13.27;11.87;;;18.70;83.90;;;;;;4976309;28;20482;-61
2021/11/24 12:35:32;;;;;;;14.40;12.80;;;18.50;77.80;;;;;;4973951;28;20445;-61
2021/11/24 12:37:59;;;;;;;17.90;15.20;;;19.00;75.80;;;;;;4974412;28;20872;-60
2021/11/24 12:40:26;;;;;;;14.70;12.70;;;20.00;72.10;;;;;;4975377;28;20604;-60
2021/11/24 12:42:59;;;;;;;13.07;11.67;;;20.40;69.30;;;;;;4979757;28;20500;-59
2021/11/24 12:45:26;;;;;;;13.33;11.93;;;21.10;65.60;;;;;;4977055;28;20446;-59
2021/11/24 12:48:10;;;;;;;12.83;11.50;;;21.30;61.20;;;;;;4977383;28;20835;-60
2021/11/24 12:50:35;;;;;;;12.47;11.27;;;21.80;60.10;;;;;;4976938;28;21013;-60
2021/11/24 12:53:05;;;;;;;13.33;11.90;;;22.00;59.40;;;;;;4974175;28;20441;-59
2021/11/24 12:55:35;;;;;;;13.10;11.80;;;22.40;57.40;;;;;;4977354;28;20233;-59
2021/11/24 12:58:25;;;;;;;12.87;11.50;;;22.50;55.90;;;;;;4976792;28;20465;-59